Time;durP1;ratioP1;P1;durP2;ratioP2;P2;SDS_P1;SDS_P2;PMS_P1;PMS_P2;Temp;Humidity;BMP_temperature;BMP_pressure;BME280_temperature;BME280_humidity;BME280_pressure;Samples;Min_cycle;Max_cycle;Signal;HPM_P1;HPM_P2
2022/12/29 00:00:12;;;;;;;0.60;0.60;;;;;;;8.52;100.00;99936.34;6194152;28;20054;-75
2022/12/29 00:03:13;;;;;;;1.65;0.90;;;;;;;8.61;100.00;99933.19;6198094;28;20074;-75
2022/12/29 00:06:16;;;;;;;0.88;0.80;;;;;;;8.68;100.00;99926.69;6197831;28;20050;-75
2022/12/29 00:09:17;;;;;;;1.35;1.00;;;;;;;8.74;100.00;99931.53;6198147;28;20058;-75
2022/12/29 00:12:19;;;;;;;1.67;0.70;;;;;;;8.71;100.00;99920.41;6197628;28;20050;-75
2022/12/29 00:18:47;;;;;;;3.95;0.68;;;;;;;8.75;100.00;99920.13;6151278;28;20050;-74
2022/12/29 00:35:09;;;;;;;0.63;0.63;;;;;;;8.81;100.00;99905.81;6197603;28;20082;-74
2022/12/29 00:44:54;;;;;;;0.60;0.60;;;;;;;8.82;100.00;99876.94;6166345;28;20054;-75
2022/12/29 00:47:55;;;;;;;0.80;0.70;;;;;;;8.77;100.00;99871.13;6202267;28;20422;-75
2022/12/29 00:50:55;;;;;;;1.02;0.93;;;;;;;8.73;100.00;99867.00;6202508;28;20050;-75
2022/12/29 00:53:58;;;;;;;0.50;0.50;;;;;;;8.64;100.00;99852.66;6202082;28;20046;-75
2022/12/29 00:57:00;;;;;;;2.60;1.10;;;;;;;8.64;100.00;99841.34;6202173;28;20461;-75
2022/12/29 01:00:01;;;;;;;0.52;0.52;;;;;;;8.61;100.00;99844.16;6202045;28;20046;-75
2022/12/29 01:03:03;;;;;;;0.70;0.70;;;;;;;8.67;100.00;99842.94;6202235;28;20057;-75
2022/12/29 01:06:06;;;;;;;1.42;0.63;;;;;;;8.60;100.00;99856.41;6201944;28;20074;-75
2022/12/29 01:12:41;;;;;;;0.88;0.60;;;;;;;8.74;100.00;99855.56;6201833;28;20050;-75
2022/12/29 01:15:50;;;;;;;2.17;0.70;;;;;;;8.77;100.00;99850.16;6201798;28;20057;-75
2022/12/29 01:18:51;;;;;;;1.63;0.80;;;;;;;8.80;100.00;99863.06;6201841;28;20050;-75
2022/12/29 01:21:53;;;;;;;0.93;0.68;;;;;;;8.93;100.00;99863.16;6201738;28;20057;-75
2022/12/29 01:24:55;;;;;;;1.00;0.90;;;;;;;9.04;100.00;99870.41;6201264;28;20061;-75
2022/12/29 01:27:57;;;;;;;0.70;0.60;;;;;;;9.03;100.00;99845.94;6201859;28;20057;-75
2022/12/29 01:31:00;;;;;;;1.27;0.82;;;;;;;8.98;100.00;99844.53;6201284;28;20674;-75
2022/12/29 01:34:02;;;;;;;1.63;0.68;;;;;;;9.04;100.00;99839.78;6201638;28;20050;-75
2022/12/29 01:37:03;;;;;;;5.22;0.80;;;;;;;9.07;100.00;99836.13;6201376;28;20084;-75
2022/12/29 01:40:07;;;;;;;0.88;0.60;;;;;;;9.12;100.00;99827.03;6201190;28;20053;-75
2022/12/29 01:43:11;;;;;;;0.47;0.47;;;;;;;9.13;100.00;99833.97;6201236;28;20050;-75
2022/12/29 01:46:20;;;;;;;2.65;0.70;;;;;;;9.23;100.00;99822.91;6200951;28;20051;-75
2022/12/29 01:49:25;;;;;;;1.23;0.60;;;;;;;9.19;100.00;99817.00;6201329;28;20640;-75
2022/12/29 01:52:30;;;;;;;1.33;0.57;;;;;;;9.21;100.00;99819.53;6200915;28;20057;-75
2022/12/29 01:55:38;;;;;;;0.73;0.45;;;;;;;9.24;100.00;99811.47;6200547;28;20050;-75
2022/12/29 01:58:45;;;;;;;0.45;0.43;;;;;;;9.24;100.00;99817.56;6200657;28;20051;-75
2022/12/29 02:01:46;;;;;;;0.90;0.40;;;;;;;9.28;100.00;99812.97;6200731;28;20057;-75
2022/12/29 02:04:48;;;;;;;0.95;0.70;;;;;;;9.27;100.00;99814.75;6200467;28;20418;-75
2022/12/29 02:07:50;;;;;;;0.30;0.30;;;;;;;9.24;100.00;99809.69;6200615;28;20060;-75
2022/12/29 02:10:54;;;;;;;0.60;0.50;;;;;;;9.29;100.00;99809.41;6200505;28;20446;-76
2022/12/29 02:13:56;;;;;;;0.57;0.40;;;;;;;9.30;100.00;99801.44;6200487;28;20054;-75
2022/12/29 02:17:11;;;;;;;0.45;0.40;;;;;;;9.33;100.00;99787.31;6200476;28;20057;-75
2022/12/29 02:20:38;;;;;;;1.10;0.70;;;;;;;9.35;100.00;99783.63;6200389;28;20046;-75
2022/12/29 02:24:17;;;;;;;0.60;0.50;;;;;;;9.41;100.00;99785.03;6199040;28;20046;-75
2022/12/29 02:27:38;;;;;;;1.02;0.68;;;;;;;9.49;100.00;99774.88;6200092;28;20045;-75
2022/12/29 02:30:46;;;;;;;0.40;0.40;;;;;;;9.52;100.00;99776.47;6191942;28;20056;-77
2022/12/29 02:33:57;;;;;;;0.85;0.60;;;;;;;9.49;100.00;99779.28;6199682;28;20054;-75
2022/12/29 02:37:06;;;;;;;0.47;0.47;;;;;;;9.46;100.00;99767.22;6193882;28;20054;-75
2022/12/29 02:40:18;;;;;;;0.73;0.60;;;;;;;9.64;100.00;99779.16;6199707;28;20050;-75
2022/12/29 02:43:27;;;;;;;0.55;0.38;;;;;;;9.69;100.00;99773.59;6199979;28;20129;-75
2022/12/29 02:46:36;;;;;;;0.57;0.57;;;;;;;9.67;100.00;99762.34;6199619;28;20421;-75
2022/12/29 02:49:45;;;;;;;0.50;0.50;;;;;;;9.62;100.00;99762.66;6199672;28;20057;-75
2022/12/29 02:52:51;;;;;;;0.45;0.45;;;;;;;9.61;100.00;99757.53;6199589;28;20062;-75
2022/12/29 02:55:52;;;;;;;0.40;0.40;;;;;;;9.64;100.00;99759.94;6199600;28;20061;-75
2022/12/29 02:58:53;;;;;;;1.48;0.52;;;;;;;9.67;100.00;99754.47;6199638;28;20046;-74
2022/12/29 03:02:17;;;;;;;0.32;0.30;;;;;;;9.70;100.00;99766.56;6199032;28;20050;-76
2022/12/29 03:05:26;;;;;;;0.32;0.32;;;;;;;9.82;100.00;99760.53;6197865;28;20080;-75
2022/12/29 03:08:35;;;;;;;0.35;0.35;;;;;;;9.72;100.00;99752.44;6198696;28;20058;-75
2022/12/29 03:18:41;;;;;;;0.30;0.30;;;;;;;9.36;100.00;99730.28;6199149;28;20083;-75
2022/12/29 03:25:13;;;;;;;0.30;0.30;;;;;;;9.33;100.00;99719.13;6198844;28;20058;-76
2022/12/29 03:28:19;;;;;;;0.30;0.30;;;;;;;9.32;100.00;99717.47;6199072;28;20054;-76
2022/12/29 03:31:23;;;;;;;0.30;0.30;;;;;;;9.39;100.00;99710.88;6198725;28;20061;-75
2022/12/29 03:34:27;;;;;;;0.30;0.30;;;;;;;9.42;100.00;99712.47;6198822;28;20054;-75
2022/12/29 03:37:36;;;;;;;0.20;0.20;;;;;;;9.43;100.00;99706.28;6198647;28;20055;-75
2022/12/29 03:40:41;;;;;;;0.35;0.35;;;;;;;9.49;100.00;99695.38;6198771;28;20100;-75
2022/12/29 03:43:42;;;;;;;0.20;0.20;;;;;;;9.64;100.00;99702.25;6198313;28;20065;-75
2022/12/29 03:46:44;;;;;;;0.25;0.25;;;;;;;9.74;100.00;99700.69;6198451;28;20050;-75
2022/12/29 03:49:47;;;;;;;0.25;0.25;;;;;;;9.81;100.00;99683.59;6198413;28;20054;-76
2022/12/29 03:52:48;;;;;;;0.28;0.28;;;;;;;9.78;100.00;99696.91;6197630;28;20054;-75
2022/12/29 03:55:50;;;;;;;0.35;0.30;;;;;;;9.88;100.00;99700.59;6183737;28;20057;-76
2022/12/29 03:58:51;;;;;;;0.20;0.20;;;;;;;9.90;100.00;99688.22;6185369;28;20050;-76
2022/12/29 04:01:52;;;;;;;0.20;0.20;;;;;;;9.98;100.00;99687.69;6183266;28;20054;-75
2022/12/29 04:04:55;;;;;;;0.28;0.28;;;;;;;10.02;100.00;99689.16;6182777;28;20063;-75
2022/12/29 04:07:56;;;;;;;0.20;0.20;;;;;;;10.07;100.00;99678.34;6185396;28;20046;-75
2022/12/29 04:10:58;;;;;;;0.95;0.40;;;;;;;10.03;100.00;99688.22;6183466;28;20051;-75
2022/12/29 04:13:59;;;;;;;0.30;0.30;;;;;;;10.08;100.00;99669.53;6184544;28;20054;-76
2022/12/29 04:17:00;;;;;;;0.30;0.30;;;;;;;10.11;100.00;99671.94;6183984;28;20054;-75
2022/12/29 04:23:19;;;;;;;1.98;0.28;;;;;;;10.18;100.00;99667.97;6183115;28;20059;-75
2022/12/29 04:26:20;;;;;;;1.30;0.35;;;;;;;10.24;100.00;99682.44;6184503;28;20589;-75
2022/12/29 04:29:22;;;;;;;0.28;0.28;;;;;;;10.22;100.00;99666.81;6183964;28;20046;-76
2022/12/29 04:32:23;;;;;;;0.20;0.20;;;;;;;10.19;100.00;99674.06;6183861;28;20046;-75
2022/12/29 04:35:26;;;;;;;0.32;0.28;;;;;;;10.36;100.00;99679.03;6184100;28;20058;-75
2022/12/29 04:38:27;;;;;;;0.20;0.20;;;;;;;10.39;100.00;99671.75;6183401;28;20405;-75
2022/12/29 04:41:28;;;;;;;0.98;0.20;;;;;;;10.35;100.00;99679.94;6175984;28;20062;-75
2022/12/29 04:44:30;;;;;;;0.20;0.20;;;;;;;10.48;100.00;99674.69;6173241;28;20509;-73
2022/12/29 04:47:31;;;;;;;0.45;0.43;;;;;;;10.58;100.00;99676.56;6173748;28;20051;-75
2022/12/29 04:50:34;;;;;;;0.40;0.40;;;;;;;10.60;100.00;99684.34;6173299;28;20669;-75
2022/12/29 04:53:35;;;;;;;0.40;0.30;;;;;;;10.47;100.00;99665.97;6173578;28;20047;-75
2022/12/29 04:56:36;;;;;;;3.40;0.30;;;;;;;10.41;100.00;99661.16;6173439;28;20514;-75
2022/12/29 04:59:38;;;;;;;0.30;0.30;;;;;;;10.37;100.00;99665.78;6173168;28;20054;-74
2022/12/29 05:02:39;;;;;;;0.28;0.28;;;;;;;10.36;100.00;99656.22;6173395;28;20062;-75
2022/12/29 05:05:42;;;;;;;0.28;0.28;;;;;;;10.39;100.00;99663.03;6172845;28;20054;-73
2022/12/29 05:08:43;;;;;;;0.40;0.40;;;;;;;10.34;100.00;99662.50;6173423;28;20411;-73
2022/12/29 05:11:44;;;;;;;0.47;0.30;;;;;;;10.37;100.00;99655.25;6173053;28;20070;-73
2022/12/29 05:14:45;;;;;;;1.20;0.45;;;;;;;10.37;100.00;99663.16;6172996;28;20070;-73
2022/12/29 05:17:47;;;;;;;0.68;0.30;;;;;;;10.36;100.00;99655.38;6173112;28;20049;-73
2022/12/29 05:20:50;;;;;;;0.45;0.45;;;;;;;10.32;100.00;99667.03;6173061;28;20057;-73
2022/12/29 05:23:51;;;;;;;0.35;0.25;;;;;;;10.45;100.00;99678.38;6172949;28;20046;-73
2022/12/29 05:26:52;;;;;;;0.45;0.40;;;;;;;10.49;100.00;99679.84;6172923;28;20055;-73
2022/12/29 05:29:54;;;;;;;0.57;0.40;;;;;;;10.56;100.00;99683.69;6173540;28;20051;-73
2022/12/29 05:32:55;;;;;;;0.55;0.25;;;;;;;10.50;100.00;99673.63;6177269;28;20043;-73
2022/12/29 05:36:04;;;;;;;0.82;0.40;;;;;;;10.59;100.00;99667.72;6177304;28;20051;-73
2022/12/29 05:39:07;;;;;;;0.35;0.30;;;;;;;10.47;100.00;99668.59;6177130;28;20410;-73
2022/12/29 05:42:08;;;;;;;0.40;0.40;;;;;;;10.49;100.00;99665.84;6177146;28;20190;-73
2022/12/29 05:45:10;;;;;;;0.30;0.30;;;;;;;10.53;100.00;99660.25;6176933;28;20054;-73
2022/12/29 05:48:12;;;;;;;0.30;0.30;;;;;;;10.54;100.00;99661.13;6177150;28;20046;-73
2022/12/29 05:51:14;;;;;;;0.20;0.20;;;;;;;10.64;100.00;99660.34;6176843;28;20051;-73
2022/12/29 05:54:16;;;;;;;0.75;0.47;;;;;;;10.63;100.00;99660.47;6176926;28;20070;-73
2022/12/29 05:57:17;;;;;;;0.20;0.20;;;;;;;10.53;100.00;99672.56;6177056;28;20054;-73
2022/12/29 06:00:19;;;;;;;0.43;0.30;;;;;;;10.61;100.00;99671.06;6177376;28;20046;-74
2022/12/29 06:03:20;;;;;;;0.20;0.20;;;;;;;10.50;100.00;99671.00;6177095;28;20062;-74
2022/12/29 06:06:23;;;;;;;0.30;0.30;;;;;;;10.38;100.00;99669.22;6176911;28;20053;-75
2022/12/29 06:09:24;;;;;;;0.20;0.20;;;;;;;10.29;100.00;99659.38;6176943;28;20043;-74
2022/12/29 06:12:25;;;;;;;0.35;0.35;;;;;;;10.10;100.00;99651.91;6176632;28;20051;-75
2022/12/29 06:15:27;;;;;;;1.17;0.38;;;;;;;9.88;100.00;99655.97;6176368;28;20054;-76
2022/12/29 06:18:28;;;;;;;0.80;0.35;;;;;;;9.72;100.00;99657.97;6176265;28;20043;-74
2022/12/29 06:21:31;;;;;;;0.30;0.20;;;;;;;9.48;100.00;99649.94;6176239;28;20050;-74
2022/12/29 06:24:32;;;;;;;2.72;0.35;;;;;;;9.40;100.00;99650.47;6175992;28;20119;-74
2022/12/29 06:27:34;;;;;;;0.20;0.20;;;;;;;9.23;100.00;99661.22;6176379;28;20055;-74
2022/12/29 06:30:35;;;;;;;0.20;0.20;;;;;;;9.09;100.00;99669.97;6175928;28;20051;-75
2022/12/29 06:33:36;;;;;;;0.20;0.20;;;;;;;8.94;100.00;99665.69;6176198;28;20051;-75
2022/12/29 06:36:39;;;;;;;0.40;0.30;;;;;;;8.87;100.00;99672.28;6175812;28;20424;-74
2022/12/29 06:39:42;;;;;;;0.73;0.40;;;;;;;8.79;100.00;99698.13;6175627;28;20055;-75
2022/12/29 06:45:46;;;;;;;0.10;0.10;;;;;;;8.69;100.00;99712.75;6204794;28;20045;-75
2022/12/29 06:48:48;;;;;;;1.27;0.30;;;;;;;8.66;100.00;99712.91;6224287;28;20050;-75
2022/12/29 06:51:50;;;;;;;3.33;0.43;;;;;;;8.67;100.00;99733.75;6204640;28;20050;-75
2022/12/29 06:54:52;;;;;;;2.85;0.25;;;;;;;8.66;100.00;99733.88;6199815;28;20057;-75
2022/12/29 06:57:55;;;;;;;1.25;0.40;;;;;;;8.68;100.00;99738.09;6199514;28;20570;-76
2022/12/29 07:00:56;;;;;;;0.30;0.20;;;;;;;8.61;100.00;99728.91;6199563;28;20054;-76
2022/12/29 07:03:57;;;;;;;0.25;0.10;;;;;;;8.62;100.00;99739.28;6199158;28;20093;-75
2022/12/29 07:07:00;;;;;;;1.30;0.40;;;;;;;8.59;100.00;99717.72;6199630;28;20120;-76
2022/12/29 07:10:01;;;;;;;0.68;0.30;;;;;;;8.56;100.00;99705.63;6199217;28;20050;-76
2022/12/29 07:13:03;;;;;;;0.10;0.10;;;;;;;8.52;100.00;99713.78;6199519;28;20046;-75
2022/12/29 07:16:09;;;;;;;5.05;0.38;;;;;;;8.54;100.00;99731.09;6199252;28;20073;-76
2022/12/29 07:19:10;;;;;;;0.20;0.20;;;;;;;8.55;100.00;99742.41;6199220;28;20050;-75
2022/12/29 07:22:13;;;;;;;1.05;0.40;;;;;;;8.50;100.00;99739.22;6199051;28;20176;-75
2022/12/29 07:25:14;;;;;;;0.22;0.22;;;;;;;8.46;100.00;99753.44;6198727;28;20050;-76
2022/12/29 07:28:15;;;;;;;0.25;0.20;;;;;;;8.42;100.00;99752.78;6199119;28;20121;-76
2022/12/29 07:31:18;;;;;;;0.13;0.13;;;;;;;8.41;100.00;99768.59;6198489;28;20403;-76
2022/12/29 07:34:20;;;;;;;0.20;0.20;;;;;;;8.42;100.00;99760.63;6198742;28;20054;-75
2022/12/29 07:37:22;;;;;;;0.75;0.47;;;;;;;8.39;100.00;99764.25;6198760;28;20517;-75
2022/12/29 07:40:24;;;;;;;0.20;0.20;;;;;;;8.41;100.00;99776.44;6198648;28;20057;-75
2022/12/29 07:43:25;;;;;;;2.72;0.28;;;;;;;8.45;100.00;99794.50;6198473;28;20081;-75
2022/12/29 07:46:27;;;;;;;1.80;0.20;;;;;;;8.48;100.00;99783.81;6198449;28;20057;-75
2022/12/29 07:49:29;;;;;;;1.33;0.10;;;;;;;8.54;100.00;99790.44;6198406;28;20442;-75
2022/12/29 07:52:31;;;;;;;0.10;0.10;;;;;;;8.59;100.00;99794.50;6197822;28;20049;-75
2022/12/29 07:55:33;;;;;;;0.20;0.20;;;;;;;8.66;100.00;99791.50;6198237;28;20046;-75
2022/12/29 07:58:34;;;;;;;2.75;0.50;;;;;;;8.65;100.00;99793.28;6198138;28;20426;-75
2022/12/29 08:01:36;;;;;;;4.95;0.57;;;;;;;8.61;100.00;99787.38;6198043;28;20054;-75
2022/12/29 08:04:38;;;;;;;0.40;0.30;;;;;;;8.56;100.00;99781.56;6198020;28;20058;-75
2022/12/29 08:07:40;;;;;;;0.43;0.35;;;;;;;8.58;100.00;99784.97;6198294;28;20046;-75
2022/12/29 08:10:42;;;;;;;0.47;0.40;;;;;;;8.62;100.00;99794.28;6197814;28;20442;-75
2022/12/29 08:13:43;;;;;;;1.27;0.60;;;;;;;8.67;100.00;99788.78;6211536;28;20054;-75
2022/12/29 08:16:44;;;;;;;0.20;0.20;;;;;;;8.62;100.00;99798.69;6213819;28;20505;-75
2022/12/29 08:19:46;;;;;;;1.70;0.30;;;;;;;8.62;100.00;99790.84;6219169;28;20045;-74
2022/12/29 08:22:48;;;;;;;0.60;0.30;;;;;;;8.71;100.00;99803.38;6222217;28;20692;-74
2022/12/29 08:25:58;;;;;;;0.38;0.25;;;;;;;8.69;100.00;99809.66;6221900;28;20050;-75
2022/12/29 08:28:59;;;;;;;;;;;;;;;8.64;100.00;99823.03;6211257;28;20046;-75
2022/12/29 08:32:00;;;;;;;8.82;0.50;;;;;;;8.68;100.00;99823.69;6197451;28;19961;-75
2022/12/29 08:35:02;;;;;;;0.45;0.28;;;;;;;8.73;100.00;99829.50;6197641;28;20050;-75
2022/12/29 08:38:04;;;;;;;1.02;0.47;;;;;;;8.68;100.00;99821.06;6210200;28;20414;-75
2022/12/29 08:41:05;;;;;;;0.30;0.30;;;;;;;8.63;100.00;99823.97;6221557;28;20057;-75
2022/12/29 08:44:07;;;;;;;1.10;0.40;;;;;;;8.66;100.00;99831.63;6221733;28;20536;-75
2022/12/29 08:47:10;;;;;;;0.60;0.35;;;;;;;8.75;100.00;99832.84;6221916;28;20053;-74
2022/12/29 08:50:11;;;;;;;1.85;0.52;;;;;;;8.78;100.00;99828.25;6221816;28;20045;-75
2022/12/29 08:53:14;;;;;;;0.60;0.45;;;;;;;8.79;100.00;99821.25;6221520;28;20399;-75
2022/12/29 08:56:16;;;;;;;0.98;0.40;;;;;;;8.79;100.00;99819.47;6222244;28;20061;-75
2022/12/29 08:59:17;;;;;;;3.75;0.80;;;;;;;8.89;100.00;99824.97;6221969;28;20502;-75
2022/12/29 09:02:19;;;;;;;2.38;0.57;;;;;;;8.92;100.00;99832.66;6221920;28;20054;-75
2022/12/29 09:05:20;;;;;;;1.25;0.47;;;;;;;8.98;100.00;99841.91;6222797;28;20560;-75
2022/12/29 09:08:23;;;;;;;4.47;0.30;;;;;;;9.03;100.00;99832.00;6226323;28;20409;-75
2022/12/29 09:11:25;;;;;;;0.85;0.45;;;;;;;9.11;100.00;99832.38;6226330;28;20057;-75
2022/12/29 09:14:27;;;;;;;1.45;0.30;;;;;;;9.12;100.00;99832.25;6226035;28;20060;-76
2022/12/29 09:17:44;;;;;;;3.08;0.90;;;;;;;9.13;100.00;99831.34;6226389;28;20049;-75
2022/12/29 09:20:45;;;;;;;3.55;0.70;;;;;;;9.17;100.00;99839.84;6225822;28;20057;-75
2022/12/29 09:23:49;;;;;;;0.80;0.47;;;;;;;9.25;100.00;99853.31;6226022;28;20410;-75
2022/12/29 09:26:50;;;;;;;2.50;0.90;;;;;;;9.31;100.00;99844.22;6223346;28;20046;-75
2022/12/29 09:29:51;;;;;;;0.50;0.30;;;;;;;9.37;100.00;99846.47;6217127;28;20509;-75
2022/12/29 09:32:53;;;;;;;0.95;0.30;;;;;;;9.42;100.00;99840.94;6225579;28;20050;-75
2022/12/29 09:35:56;;;;;;;0.82;0.40;;;;;;;9.48;100.00;99845.78;6225611;28;20065;-76
2022/12/29 09:38:59;;;;;;;2.50;0.75;;;;;;;9.45;100.00;99840.75;6225766;28;20057;-75
2022/12/29 09:42:07;;;;;;;3.63;0.40;;;;;;;9.52;100.00;99848.13;6225296;28;20046;-75
2022/12/29 09:45:15;;;;;;;3.13;0.85;;;;;;;9.58;100.00;99839.88;6225264;28;20176;-76
2022/12/29 09:48:20;;;;;;;2.13;0.53;;;;;;;9.71;100.00;99844.34;6225767;28;20061;-75
2022/12/29 09:51:24;;;;;;;4.35;0.50;;;;;;;9.69;100.00;99841.81;6225385;28;20049;-78
2022/12/29 09:54:41;;;;;;;2.00;0.57;;;;;;;9.79;100.00;99819.28;6226017;28;20046;-76
2022/12/29 09:57:47;;;;;;;0.25;0.20;;;;;;;9.93;100.00;99815.75;6225234;28;20192;-76
2022/12/29 10:00:53;;;;;;;4.47;0.55;;;;;;;9.89;100.00;99809.88;6225301;28;20057;-76
2022/12/29 10:03:56;;;;;;;6.63;0.55;;;;;;;9.95;100.00;99815.66;6225053;28;20058;-75
2022/12/29 10:07:03;;;;;;;1.88;0.45;;;;;;;9.90;100.00;99810.69;6225127;28;20501;-76
2022/12/29 10:10:22;;;;;;;1.08;0.55;;;;;;;9.87;100.00;99805.69;6225105;28;20050;-76
2022/12/29 10:13:33;;;;;;;4.03;0.50;;;;;;;9.83;100.00;99810.28;6224833;28;20464;-75
2022/12/29 10:16:39;;;;;;;4.22;0.55;;;;;;;10.06;100.00;99808.75;6224777;28;20058;-76
2022/12/29 10:20:02;;;;;;;5.75;0.70;;;;;;;10.19;100.00;99803.53;6224980;28;20053;-76
2022/12/29 10:23:23;;;;;;;1.65;0.70;;;;;;;10.10;100.00;99806.78;6224678;28;20505;-76
2022/12/29 10:26:29;;;;;;;5.22;0.57;;;;;;;10.24;100.00;99819.00;6224853;28;20053;-75
2022/12/29 10:29:36;;;;;;;3.65;1.17;;;;;;;10.29;100.00;99815.13;6224566;28;20053;-76
2022/12/29 10:32:41;;;;;;;1.02;0.20;;;;;;;10.33;100.00;99808.75;6224763;28;20057;-76
2022/12/29 10:35:43;;;;;;;1.25;1.02;;;;;;;10.41;100.00;99816.94;6225742;28;20053;-77
2022/12/29 10:38:52;;;;;;;5.47;1.27;;;;;;;10.55;100.00;99818.63;6226070;28;20405;-77
2022/12/29 10:41:58;;;;;;;;;;;;;;;10.45;100.00;99825.47;6225039;28;20050;-76
2022/12/29 10:45:00;;;;;;;4.05;0.70;;;;;;;10.57;100.00;99810.63;6224723;28;19929;-78
2022/12/29 10:48:07;;;;;;;2.75;0.63;;;;;;;10.61;98.75;99818.22;6225854;28;20065;-74
2022/12/29 10:51:09;;;;;;;2.00;0.90;;;;;;;10.59;100.00;99840.28;6225640;28;20053;-77
2022/12/29 10:54:15;;;;;;;6.38;0.50;;;;;;;10.59;98.41;99829.78;6225106;28;20448;-75
2022/12/29 10:57:26;;;;;;;0.50;0.47;;;;;;;10.64;96.75;99815.38;6221909;28;20045;-74
2022/12/29 11:00:27;;;;;;;2.95;0.95;;;;;;;10.60;100.00;99821.78;6223444;28;20038;-76
2022/12/29 11:03:46;;;;;;;0.98;0.52;;;;;;;10.61;97.91;99833.97;6219482;28;20045;-74
2022/12/29 11:06:47;;;;;;;1.88;0.45;;;;;;;10.60;100.00;99813.91;6221112;28;20061;-77
2022/12/29 11:09:48;;;;;;;2.05;1.05;;;;;;;10.60;99.06;99808.66;6223428;28;20042;-76
2022/12/29 11:12:59;;;;;;;2.15;0.57;;;;;;;10.61;99.22;99814.75;6217787;28;20056;-75
2022/12/29 11:16:02;;;;;;;3.95;0.63;;;;;;;10.60;98.76;99811.28;6217002;28;20050;-75
2022/12/29 11:19:04;;;;;;;0.30;0.30;;;;;;;10.56;100.00;99807.19;6223731;28;20056;-75
2022/12/29 11:22:14;;;;;;;0.30;0.30;;;;;;;10.55;100.00;99812.53;6223835;28;20076;-75
2022/12/29 11:25:16;;;;;;;2.53;0.85;;;;;;;10.56;99.83;99825.56;6224018;28;20084;-74
2022/12/29 11:28:18;;;;;;;1.70;0.70;;;;;;;10.60;98.90;99813.91;6223939;28;20060;-75
2022/12/29 11:31:22;;;;;;;3.15;0.60;;;;;;;10.66;97.03;99805.59;6223217;28;20046;-75
2022/12/29 11:34:26;;;;;;;3.40;0.65;;;;;;;10.70;95.75;99810.66;6223870;28;20057;-75
2022/12/29 11:37:30;;;;;;;2.33;0.50;;;;;;;10.70;94.49;99800.97;6224802;28;20049;-75
2022/12/29 11:40:34;;;;;;;1.65;0.30;;;;;;;10.68;95.08;99818.66;6223748;28;20111;-75
2022/12/29 11:43:39;;;;;;;1.52;0.63;;;;;;;10.69;94.99;99812.44;6223482;28;20046;-77
2022/12/29 11:46:46;;;;;;;3.17;0.90;;;;;;;10.68;94.47;99825.69;6223534;28;20054;-75
2022/12/29 11:49:50;;;;;;;6.15;1.25;;;;;;;10.69;96.51;99812.44;6224321;28;20050;-75
2022/12/29 11:52:59;;;;;;;2.30;0.50;;;;;;;10.62;98.07;99825.13;6224934;28;20057;-74
2022/12/29 11:56:05;;;;;;;0.98;0.40;;;;;;;10.59;99.11;99814.84;6224527;28;20061;-77
2022/12/29 11:59:37;;;;;;;2.35;0.57;;;;;;;10.59;99.72;99814.84;6224197;28;20409;-75
2022/12/29 12:02:44;;;;;;;3.22;0.52;;;;;;;10.58;100.00;99817.56;6224759;28;20050;-76
2022/12/29 12:05:52;;;;;;;3.65;0.47;;;;;;;10.58;100.00;99821.06;6224531;28;20052;-76
2022/12/29 12:08:56;;;;;;;3.35;0.68;;;;;;;10.61;100.00;99830.50;6224329;28;20068;-75
2022/12/29 12:12:02;;;;;;;1.10;0.40;;;;;;;10.58;100.00;99822.81;6224574;28;20077;-76
2022/12/29 12:15:06;;;;;;;1.75;0.52;;;;;;;10.62;100.00;99834.81;6224100;28;20101;-76
2022/12/29 12:18:12;;;;;;;0.75;0.45;;;;;;;10.60;100.00;99836.72;6224312;28;20054;-75
2022/12/29 12:21:21;;;;;;;0.60;0.40;;;;;;;10.58;100.00;99842.09;6223584;28;20437;-78
2022/12/29 12:24:37;;;;;;;0.95;0.68;;;;;;;10.63;100.00;99833.88;6223087;28;20433;-76
2022/12/29 12:27:44;;;;;;;3.75;0.90;;;;;;;10.62;100.00;99838.28;6222382;28;20050;-76
2022/12/29 12:30:50;;;;;;;1.55;0.45;;;;;;;10.58;100.00;99834.19;6215592;28;20042;-76
2022/12/29 12:33:58;;;;;;;1.02;0.45;;;;;;;10.56;100.00;99851.84;6222267;28;20061;-75
2022/12/29 12:37:11;;;;;;;2.42;0.77;;;;;;;10.50;100.00;99847.00;6223123;28;20127;-76
2022/12/29 12:40:34;;;;;;;0.95;0.65;;;;;;;10.54;100.00;99840.59;6224013;28;20057;-77
2022/12/29 12:43:41;;;;;;;3.53;0.85;;;;;;;10.50;100.00;99844.38;6225648;22;20043;-76
2022/12/29 12:47:15;;;;;;;1.85;0.63;;;;;;;10.42;100.00;99865.06;6191320;28;20050;-74
2022/12/29 12:50:36;;;;;;;1.67;0.80;;;;;;;10.47;100.00;99851.63;6159844;28;20049;-75
2022/12/29 12:53:55;;;;;;;5.03;1.00;;;;;;;10.54;100.00;99855.53;6191088;28;20458;-75
2022/12/29 12:57:07;;;;;;;1.10;0.75;;;;;;;10.50;100.00;99861.94;6188976;28;20042;-75
2022/12/29 13:00:11;;;;;;;0.70;0.70;;;;;;;10.48;100.00;99869.91;6195860;28;20050;-75
2022/12/29 13:03:19;;;;;;;4.25;0.90;;;;;;;10.54;100.00;99866.88;6203074;28;20057;-75
2022/12/29 13:06:35;;;;;;;1.65;0.52;;;;;;;10.58;100.00;99872.75;6203303;28;20061;-75
2022/12/29 13:09:49;;;;;;;1.60;0.63;;;;;;;10.58;100.00;99870.13;6202915;28;20545;-75
2022/12/29 13:13:00;;;;;;;0.80;0.47;;;;;;;10.57;100.00;99879.78;6202807;28;20053;-75
2022/12/29 13:16:11;;;;;;;2.53;0.65;;;;;;;10.51;100.00;99914.34;6203127;28;20057;-75
2022/12/29 13:19:19;;;;;;;5.25;0.88;;;;;;;10.56;100.00;99891.25;6203002;28;20054;-76
2022/12/29 13:22:26;;;;;;;3.35;0.80;;;;;;;10.54;100.00;99898.41;6202044;28;20053;-76
2022/12/29 13:25:37;;;;;;;4.22;0.70;;;;;;;10.55;100.00;99907.97;6202469;28;20061;-77
2022/12/29 13:28:48;;;;;;;1.95;0.80;;;;;;;10.54;100.00;99916.78;6201947;28;20636;-76
2022/12/29 13:31:55;;;;;;;2.13;0.98;;;;;;;10.48;100.00;99908.47;6202559;28;20061;-75
2022/12/29 13:35:11;;;;;;;2.90;0.90;;;;;;;10.43;100.00;99924.53;6202163;28;20050;-76
2022/12/29 13:38:19;;;;;;;2.40;0.88;;;;;;;10.41;100.00;99939.56;6202209;28;20058;-76
2022/12/29 13:41:30;;;;;;;0.73;0.63;;;;;;;10.51;100.00;99918.78;6202579;28;20050;-75
2022/12/29 13:44:36;;;;;;;3.88;0.80;;;;;;;10.47;100.00;99956.69;6202015;28;20050;-74
2022/12/29 13:47:41;;;;;;;4.30;0.50;;;;;;;10.38;100.00;99948.47;6203257;28;20054;-74
2022/12/29 13:50:47;;;;;;;0.30;0.30;;;;;;;10.35;100.00;99964.41;6201656;28;20050;-75
2022/12/29 13:54:02;;;;;;;2.10;0.70;;;;;;;10.31;100.00;99969.97;6201839;28;20054;-76
2022/12/29 13:57:10;;;;;;;1.65;0.38;;;;;;;10.23;100.00;99966.97;6202752;28;20058;-76
2022/12/29 14:00:16;;;;;;;1.55;0.40;;;;;;;10.24;100.00;99982.66;6201457;28;20657;-73
2022/12/29 14:03:43;;;;;;;3.13;0.52;;;;;;;10.24;100.00;99987.03;6202877;28;20054;-75
2022/12/29 14:06:48;;;;;;;3.95;0.50;;;;;;;10.16;100.00;99993.59;6201748;28;20062;-75
2022/12/29 14:09:53;;;;;;;2.65;0.95;;;;;;;10.19;100.00;99994.38;6202169;28;20422;-75
2022/12/29 14:13:03;;;;;;;1.48;0.55;;;;;;;10.09;100.00;100000.22;6187081;28;20055;-75
2022/12/29 14:16:05;;;;;;;1.60;0.57;;;;;;;10.16;100.00;100024.28;6176891;28;20051;-76
2022/12/29 14:19:17;;;;;;;1.20;0.70;;;;;;;10.10;100.00;100003.69;6176085;28;20057;-74
2022/12/29 14:22:24;;;;;;;0.30;0.30;;;;;;;10.10;100.00;100006.31;6177181;28;20057;-75
2022/12/29 14:26:02;;;;;;;1.65;0.80;;;;;;;10.06;100.00;100010.91;6176301;28;20186;-74
2022/12/29 14:29:45;;;;;;;3.67;0.68;;;;;;;10.09;100.00;100030.88;6174540;28;20054;-76
2022/12/29 14:33:03;;;;;;;4.43;0.60;;;;;;;10.04;100.00;100038.19;6169931;28;20523;-74
2022/12/29 14:36:21;;;;;;;2.47;0.73;;;;;;;9.99;100.00;100059.47;6175996;28;20062;-73
2022/12/29 14:39:33;;;;;;;2.47;0.30;;;;;;;10.04;100.00;100049.53;6175976;28;20061;-74
2022/12/29 14:42:35;;;;;;;3.67;1.25;;;;;;;9.97;100.00;100061.34;6175734;28;20057;-74
2022/12/29 14:45:42;;;;;;;2.92;0.63;;;;;;;9.82;100.00;100065.75;6175467;28;20058;-73
2022/12/29 14:48:45;;;;;;;4.15;0.70;;;;;;;9.71;100.00;100060.31;6175817;28;20051;-72
2022/12/29 14:51:48;;;;;;;3.45;0.65;;;;;;;9.65;100.00;100053.66;6175317;28;20057;-72
2022/12/29 14:54:54;;;;;;;4.20;0.75;;;;;;;9.64;100.00;100066.88;6175651;28;20412;-72
2022/12/29 14:58:01;;;;;;;1.38;0.65;;;;;;;9.58;100.00;100064.59;6175179;28;20062;-72
2022/12/29 15:01:03;;;;;;;6.03;0.88;;;;;;;9.58;100.00;100072.47;6175337;28;20042;-74
2022/12/29 15:04:15;;;;;;;2.17;0.40;;;;;;;9.51;100.00;100074.63;6173782;28;20459;-72
2022/12/29 15:07:20;;;;;;;4.32;0.63;;;;;;;9.55;100.00;100080.56;6175359;28;20407;-72
2022/12/29 15:10:23;;;;;;;4.40;0.90;;;;;;;9.55;100.00;100081.38;6175088;28;20167;-72